Stratton Mountain, Vermont
Current Conditions -  °F | °C
As of 12:54 PM on Friday 28 Nov 2014 (Local Time) from KDDH Reporting Station
Light Snow Light Snow  
Wind Chill: 20°   Ceiling: 3400
Heat Index: 28°   Visibility: 8mi
Dew Point: 18°   Wind: 8mph
Humidity: 66%   Direction: 290°WNW
Pressure: 30.08"   Gusts: NA
Location:  43.11°N, 72.91°W
Report Text: KDDH 281754Z AUTO 29007KT 8SM -SN FEW027 BKN034 OVC045 M02/M08 A3008 RMK AO2 SNB52 SLP195 P0000 60000 T10221078 11022 21039 58008
Loading
Personal Weather Stations






























Interactive Weather Map New forecast layout! Learn more

10-Day Weather Forecast

Advertisements
Track Severe Weather on mobile